Atkins, VA (24311)

8:50 AM EST on January 28, 2015 (GMT -0500)
APRSWXNET Marion VA US | Change Station
CLOSE
Current Station
Personal Weather Station
Location: Marion, VA
Elevation: 2263 ft
Nearby Weather Stations

Elev 2263 ft 36.85 °N, 81.47 °W | Updated 42 minutes ago

Overcast
Overcast
19 °F
Feels Like 19 °F
N
1
Wind Variable Wind from WSW
Gusts 0.0 mph

Today
High -- | Low -- °F
--% Chance of Precip.
Yesterday
High -- | Low -- °F
Precip. -- in
7:31 AM 5:46 PM
Waxing Gibbous, 65% visible
Pressure 30.23 in
Visibility 7.0 miles
Clouds Overcast 1300 ft
Windchill 19 °F
Dew Point 14 °F
Humidity 81%
Rainfall -999.00 in
Snow Depth Not available.
UV 0 out of 12
Pollen .40 out of 12
Air Quality Not available.
Flu Activity Not available.
METAR KMKJ 281335Z AUTO 25009KT 7SM -SN OVC013 M06/M09 A3023 RMK AO2 T10621095

More Conditions Fewer Conditions

Pressure 30.23 in
Visibility 7.0 miles
Clouds Overcast 1300 ft
Windchill 19 °F
Dew Point 14 °F
Humidity 81%
Rainfall -999.00 in
Snow Depth Not available.
UV 0 out of 12
Pollen .40 out of 12
Air Quality Not available.
Flu Activity Not available.
METAR KMKJ 281335Z AUTO 25009KT 7SM -SN OVC013 M06/M09 A3023 RMK AO2 T10621095

More Conditions Fewer Conditions

10-Day Weather Forecast

Almanac

Astronomy

Jan. 28, 2015 Rise Set
Actual Time
Civil Twilight
Nautical Twilight
Astronomical Twilight
Moon
Length of Visible Light
Length of Day
Tomorrow will be .
, % of the Moon is Illuminated

Today's Extremes

State Highs State Lows

Community

WunderPhotos

Upload Photos

1,791,140 photos uploaded!

WunderBlogs® & News

Nearby

Air Quality

  Air Quality AQ Index Pollutant
Not available.

Snow Depth

Station Depth Elevation

Earthquake Activity

City Distance Mag. Time & Date
Minimum magnitude displayed is 2.5.

Coastal Water Temperatures

Place Temperature

Nearby Weather Stations